Main page
METAR-TAF:

METAR-TAF

Airports :

Mariehamn Airport

Mariehamn, Finland

latitude: 60-07N, longitude: 019-54E, elevation: 6 m

Current weather observation

The report was made 25 minutes ago, at 09:50 UTC
Wind 4 kt from variable directions
Temperature 24°C
Humidity 47%
Pressure 1010 hPa
Visibility 10 km or more
no clouds below 1500 m and no cumulonimbus

METAR: EFMA 220950Z AUTO VRB04KT CAVOK 24/12 Q1010

Time: 13:15 (10:15 UTC)

Forecast

The report was made 1 hour and 46 minutes ago, at 08:29 UTC
Forecast valid from 22 at 09 UTC to 22 at 18 UTC
Wind 5 kt from the North/Northeast
Visibility 10 km or more
no clouds below 1500 m and no cumulonimbus
Probability 30%
from 22 at 10 UTC to 22 at 14 UTC
Wind 10 kt from the South/Southwest

TAF: EFMA 220829Z 2209/2218 02005KT CAVOK PROB30 2210/2214 20010KT

Weather observations and forecasts of more than 4000 airports (METAR and TAF reports).

The available stations are represented by yellow and red dots on the map.

Hover mouse over dot to see the name of the station.

Then click to see weather observations and forecasts.

To change the map : click on the green buttons with a black cross to zoom in, on the green button with a dash to zoom out, or on the green arrows for adjacent maps.


METAR-TAF: